createdAt,value
2022-08-22T00:01:42.349Z,75.93
2022-08-22T00:02:48.935Z,22.42
2022-08-22T00:03:00.023Z,16.25
2022-08-22T00:03:00.353Z,20.58
2022-08-22T00:03:02.257Z,16.40
2022-08-22T00:03:10.730Z,71.72
2022-08-22T00:04:09.636Z,74.32
2022-08-22T00:07:04.456Z,79.72
2022-08-22T00:09:53.470Z,81.18
2022-08-22T00:12:52.695Z,84.40
2022-08-22T00:15:42.277Z,77.20
2022-08-22T00:18:13.900Z,86.03
2022-08-22T00:21:03.496Z,91.88
2022-08-22T00:23:38.650Z,77.87
2022-08-22T00:26:44.729Z,89.53
2022-08-22T00:29:22.070Z,100.10
2022-08-22T00:31:56.703Z,99.18
2022-08-22T00:34:32.735Z,90.07
2022-08-22T00:37:02.573Z,101.18
2022-08-22T00:40:03.191Z,95.72
2022-08-22T00:42:40.458Z,93.47
2022-08-22T00:45:53.640Z,108.40
2022-08-22T00:49:00.001Z,109.57
2022-08-22T00:52:13.093Z,101.97
2022-08-22T00:54:55.785Z,110.43
2022-08-22T00:57:31.908Z,109.13
2022-08-22T01:00:14.781Z,105.00
2022-08-22T01:02:58.617Z,103.28
2022-08-22T01:05:54.013Z,108.47
2022-08-22T01:08:33.902Z,112.80
2022-08-22T01:11:09.961Z,106.28
2022-08-22T01:13:58.635Z,102.75
2022-08-22T01:16:34.836Z,105.53
2022-08-22T01:19:52.822Z,112.47
2022-08-22T01:22:44.234Z,102.10
2022-08-22T01:25:26.145Z,115.45
2022-08-22T01:28:23.336Z,112.90
2022-08-22T01:31:20.460Z,102.75
2022-08-22T01:34:15.555Z,109.60
2022-08-22T01:36:51.642Z,109.20
2022-08-22T01:39:46.496Z,103.43
2022-08-22T01:42:15.211Z,106.13
2022-08-22T01:45:01.207Z,117.70
2022-08-22T01:47:43.791Z,113.68
2022-08-22T01:50:17.706Z,110.85
2022-08-22T01:52:48.844Z,105.10
2022-08-22T01:55:24.636Z,117.70
2022-08-22T01:57:53.393Z,102.82
2022-08-22T02:00:35.555Z,109.40
2022-08-22T02:03:31.792Z,115.35
2022-08-22T02:06:07.428Z,105.75
2022-08-22T02:08:59.093Z,101.93
2022-08-22T02:11:39.262Z,110.28
2022-08-22T02:14:21.470Z,110.13
2022-08-22T02:16:53.877Z,99.28
2022-08-22T02:19:34.494Z,107.45
2022-08-22T02:22:20.253Z,112.63
2022-08-22T02:25:13.511Z,105.70
2022-08-22T02:28:10.078Z,103.10
2022-08-22T02:30:52.414Z,103.13
2022-08-22T02:33:45.838Z,110.85
2022-08-22T02:36:32.512Z,112.53
2022-08-22T02:39:19.700Z,105.53
2022-08-22T02:41:55.778Z,103.75
2022-08-22T02:44:29.883Z,99.57
2022-08-22T02:47:10.666Z,101.28
2022-08-22T02:49:43.662Z,100.55
2022-08-22T02:52:25.326Z,102.53
2022-08-22T02:55:04.104Z,97.88
2022-08-22T02:57:39.346Z,99.25
2022-08-22T03:00:31.844Z,86.75
2022-08-22T03:03:14.536Z,95.68
2022-08-22T03:05:47.371Z,89.97
2022-08-22T03:08:21.259Z,89.60
2022-08-22T03:10:56.624Z,100.18
2022-08-22T03:13:36.114Z,85.80
2022-08-22T03:16:29.572Z,88.68
2022-08-22T03:19:04.808Z,96.53
2022-08-22T03:21:56.009Z,99.10
2022-08-22T03:24:35.368Z,84.95
2022-08-22T03:27:31.353Z,94.97
2022-08-22T03:30:07.812Z,102.22
2022-08-22T03:32:54.545Z,96.68
2022-08-22T03:35:46.533Z,99.75
2022-08-22T03:38:35.084Z,95.50
2022-08-22T03:41:21.032Z,97.53
2022-08-22T03:44:03.284Z,94.57
2022-08-22T03:46:39.552Z,91.88
2022-08-22T03:49:45.314Z,99.20
2022-08-22T03:53:03.040Z,104.60
2022-08-22T03:55:54.880Z,93.13
2022-08-22T03:58:46.876Z,96.47
2022-08-22T04:01:46.267Z,109.93
2022-08-22T04:04:31.728Z,99.35
2022-08-22T04:07:42.705Z,109.45
2022-08-22T04:10:31.849Z,106.00
2022-08-22T04:13:13.886Z,111.15
2022-08-22T04:15:47.005Z,114.68
2022-08-22T04:18:28.931Z,132.05
2022-08-22T04:21:21.610Z,113.72
2022-08-22T04:24:07.202Z,122.60
2022-08-22T04:26:41.945Z,125.22
2022-08-22T04:29:26.802Z,114.38
2022-08-22T04:32:28.968Z,121.13
2022-08-22T04:35:00.003Z,134.00
2022-08-22T04:37:51.064Z,119.25
2022-08-22T04:40:47.397Z,120.63
2022-08-22T04:43:34.208Z,137.07
2022-08-22T04:46:23.039Z,131.02
2022-08-22T04:48:50.102Z,143.40
2022-08-22T04:51:26.670Z,140.10
2022-08-22T04:54:09.075Z,136.90
2022-08-22T04:56:54.689Z,135.70
2022-08-22T04:59:24.624Z,134.00
2022-08-22T05:01:57.839Z,133.85
2022-08-22T05:04:32.420Z,140.95
2022-08-22T05:07:17.181Z,132.25
2022-08-22T05:09:51.827Z,145.98
2022-08-22T05:12:30.579Z,130.15
2022-08-22T05:15:05.735Z,136.93
2022-08-22T05:17:38.807Z,138.13
2022-08-22T05:20:10.136Z,155.60
2022-08-22T05:22:42.288Z,137.07
2022-08-22T05:25:15.191Z,149.90
2022-08-22T05:27:48.389Z,144.02
2022-08-22T05:30:25.051Z,151.90
2022-08-22T05:33:15.294Z,152.50
2022-08-22T05:35:54.624Z,142.10
2022-08-22T05:38:30.114Z,154.77
2022-08-22T05:41:05.759Z,163.98
2022-08-22T05:43:38.467Z,160.75
2022-08-22T05:46:09.952Z,157.13
2022-08-22T05:48:46.412Z,173.65
2022-08-22T05:51:22.255Z,158.88
2022-08-22T05:53:58.053Z,155.43
2022-08-22T05:56:47.931Z,156.40
2022-08-22T05:59:27.911Z,155.65
2022-08-22T06:02:21.811Z,144.02
2022-08-22T06:05:00.984Z,150.93
2022-08-22T06:07:33.931Z,143.95
2022-08-22T06:10:14.564Z,145.13
2022-08-22T06:12:44.629Z,152.85
2022-08-22T06:15:21.047Z,147.90
2022-08-22T06:17:52.628Z,139.60
2022-08-22T06:20:24.288Z,142.38
2022-08-22T06:22:59.073Z,134.02
2022-08-22T06:25:32.399Z,148.40
2022-08-22T06:28:13.014Z,139.70
2022-08-22T06:30:40.779Z,136.85
2022-08-22T06:33:12.853Z,136.52
2022-08-22T06:36:13.903Z,152.57
2022-08-22T06:39:23.137Z,146.68
2022-08-22T06:41:59.323Z,146.07
2022-08-22T06:44:39.574Z,144.30
2022-08-22T06:47:10.384Z,148.38
2022-08-22T06:49:40.636Z,154.73
2022-08-22T06:54:44.758Z,156.93
2022-08-22T06:57:35.576Z,171.00
2022-08-22T07:00:10.530Z,179.10
2022-08-22T07:02:45.357Z,170.77
2022-08-22T07:05:34.447Z,176.43
2022-08-22T07:08:10.911Z,183.20
2022-08-22T07:10:43.656Z,193.43
2022-08-22T07:13:16.487Z,198.55
2022-08-22T07:15:44.057Z,181.20
2022-08-22T07:18:20.820Z,197.98
2022-08-22T07:20:54.968Z,193.60
2022-08-22T07:23:25.154Z,187.38
2022-08-22T07:26:02.544Z,188.82
2022-08-22T07:28:51.226Z,190.18
2022-08-22T07:31:44.523Z,192.75
2022-08-22T07:34:56.893Z,186.32
2022-08-22T07:37:23.952Z,183.82
2022-08-22T07:40:16.758Z,174.13
2022-08-22T07:42:48.140Z,182.98
2022-08-22T07:45:20.824Z,185.32
2022-08-22T07:48:26.158Z,187.45
2022-08-22T07:51:09.203Z,178.88
2022-08-22T07:53:42.010Z,199.23
2022-08-22T07:56:16.660Z,187.07
2022-08-22T07:58:48.530Z,182.10
2022-08-22T08:01:22.358Z,196.10
2022-08-22T08:04:02.252Z,190.05
2022-08-22T08:06:32.517Z,188.75
2022-08-22T08:11:32.392Z,191.98
2022-08-22T08:14:04.885Z,199.85
2022-08-22T08:16:40.981Z,195.48
2022-08-22T08:19:10.911Z,195.85
2022-08-22T08:21:43.557Z,191.15
2022-08-22T08:24:15.942Z,202.57
2022-08-22T08:27:08.377Z,213.85
2022-08-22T08:29:37.123Z,207.98
2022-08-22T08:32:05.967Z,200.13
2022-08-22T08:34:45.665Z,212.80
2022-08-22T08:37:25.712Z,158.95
2022-08-22T08:39:58.239Z,193.80
2022-08-22T08:43:02.738Z,182.40
2022-08-22T08:45:42.150Z,176.77
2022-08-22T08:48:18.720Z,180.43
2022-08-22T08:50:57.624Z,171.23
2022-08-22T08:53:53.121Z,165.40
2022-08-22T08:56:35.679Z,156.45
2022-08-22T08:59:44.178Z,159.75
2022-08-22T09:02:23.637Z,148.95
2022-08-22T09:05:12.767Z,120.53
2022-08-22T09:07:39.997Z,136.63
2022-08-22T09:10:22.473Z,108.88
2022-08-22T09:13:29.169Z,132.38
2022-08-22T09:16:23.254Z,122.15
2022-08-22T09:19:11.621Z,130.18
2022-08-22T09:22:25.129Z,127.78
2022-08-22T09:25:06.249Z,119.32
2022-08-22T09:27:45.945Z,112.03
2022-08-22T09:30:28.886Z,118.43
2022-08-22T09:33:06.429Z,118.10
2022-08-22T09:35:51.873Z,120.90
2022-08-22T09:38:39.996Z,99.60
2022-08-22T09:41:35.622Z,92.10
2022-08-22T09:44:24.928Z,93.57
2022-08-22T09:47:35.460Z,94.72
2022-08-22T09:50:20.690Z,87.13
2022-08-22T09:53:11.080Z,101.05
2022-08-22T09:56:11.557Z,92.93
2022-08-22T09:58:51.616Z,93.20
2022-08-22T10:01:18.836Z,95.05
2022-08-22T10:03:46.104Z,98.05
2022-08-22T10:06:21.245Z,84.95
2022-08-22T10:09:18.721Z,117.25
2022-08-22T10:11:54.095Z,73.30
2022-08-22T10:14:50.582Z,86.57
2022-08-22T10:17:26.144Z,90.63
2022-08-22T10:20:14.444Z,100.93
2022-08-22T10:22:56.320Z,107.28
2022-08-22T10:25:42.152Z,96.68
2022-08-22T10:28:21.491Z,82.00
2022-08-22T10:30:52.066Z,86.43
2022-08-22T10:33:32.745Z,70.38
2022-08-22T10:36:12.096Z,61.60
2022-08-22T10:38:52.450Z,64.70
2022-08-22T10:41:28.585Z,58.58
2022-08-22T10:44:43.030Z,56.15
2022-08-22T10:47:19.086Z,63.33
2022-08-22T10:49:53.987Z,62.13
2022-08-22T10:52:45.645Z,51.45
2022-08-22T10:55:17.569Z,51.63
2022-08-22T10:57:53.890Z,59.78
2022-08-22T11:00:37.950Z,46.83
2022-08-22T11:03:35.681Z,38.20
2022-08-22T11:06:21.497Z,34.92
2022-08-22T11:09:20.487Z,41.88
2022-08-22T11:12:02.757Z,50.35
2022-08-22T11:14:53.730Z,55.17
2022-08-22T11:17:54.256Z,44.90
2022-08-22T11:20:36.044Z,41.80
2022-08-22T11:23:19.541Z,52.20
2022-08-22T11:26:07.614Z,44.60
2022-08-22T11:28:52.773Z,42.15
2022-08-22T11:31:51.662Z,58.75
2022-08-22T11:34:38.800Z,57.80
2022-08-22T11:37:23.846Z,33.80
2022-08-22T11:40:40.141Z,30.60
2022-08-22T11:43:46.560Z,27.77
2022-08-22T11:46:38.614Z,35.35
2022-08-22T11:49:33.880Z,37.50
2022-08-22T11:52:03.945Z,30.27
2022-08-22T11:57:37.296Z,25.42
2022-08-22T12:00:11.328Z,35.47
2022-08-22T12:03:27.609Z,35.63
2022-08-22T12:06:08.601Z,33.65
2022-08-22T12:08:35.848Z,26.60
2022-08-22T12:11:17.846Z,32.47
2022-08-22T12:13:50.484Z,28.77
2022-08-22T12:16:24.184Z,25.92
2022-08-22T12:19:16.610Z,40.33
2022-08-22T12:22:02.182Z,27.98
2022-08-22T12:24:36.314Z,27.13
2022-08-22T12:27:30.758Z,28.23
2022-08-22T12:30:22.581Z,21.15
2022-08-22T12:33:13.045Z,25.67
2022-08-22T12:35:58.460Z,22.85
2022-08-22T12:38:54.388Z,17.45
2022-08-22T12:41:40.284Z,18.08
2022-08-22T12:44:26.256Z,11.65
2022-08-22T12:47:02.175Z,12.02
2022-08-22T12:49:52.551Z,7.22
2022-08-22T12:52:41.107Z,9.68
2022-08-22T12:55:30.203Z,10.90
2022-08-22T12:58:20.154Z,13.65
2022-08-22T13:03:53.999Z,13.75
2022-08-22T13:06:37.913Z,11.20
2022-08-22T13:09:31.491Z,7.13
2022-08-22T13:12:05.665Z,12.20
2022-08-22T13:14:34.892Z,10.48
2022-08-22T13:17:15.251Z,9.60
2022-08-22T13:20:03.880Z,13.10
2022-08-22T13:22:35.471Z,7.70
2022-08-22T13:25:16.429Z,9.65
2022-08-22T13:27:59.387Z,11.32
2022-08-22T13:30:37.971Z,16.98
2022-08-22T13:33:15.331Z,11.18
2022-08-22T13:35:52.590Z,11.18
2022-08-22T13:38:28.496Z,10.63
2022-08-22T13:41:00.913Z,21.23
2022-08-22T13:43:38.111Z,10.82
2022-08-22T13:46:10.943Z,8.30
2022-08-22T13:48:46.707Z,14.00
2022-08-22T13:51:40.217Z,18.55
2022-08-22T13:54:11.168Z,11.63
2022-08-22T13:56:52.876Z,11.38
2022-08-22T13:59:49.781Z,13.23
2022-08-22T14:02:21.976Z,15.30
2022-08-22T14:04:53.195Z,10.75
2022-08-22T14:07:30.020Z,9.93
2022-08-22T14:10:23.876Z,6.28
2022-08-22T14:12:57.506Z,8.00
2022-08-22T14:15:32.120Z,11.90
2022-08-22T14:18:15.408Z,19.38
2022-08-22T14:20:48.367Z,14.43
2022-08-22T14:23:32.085Z,11.35
2022-08-22T14:26:01.926Z,12.63
2022-08-22T14:28:35.587Z,8.18
2022-08-22T14:31:14.470Z,11.60
2022-08-22T14:33:50.999Z,9.68
2022-08-22T14:36:35.557Z,22.15
2022-08-22T14:39:11.325Z,14.15
2022-08-22T14:41:55.999Z,7.63
2022-08-22T14:44:36.850Z,13.52
2022-08-22T14:47:34.468Z,7.30
2022-08-22T14:50:02.638Z,13.65
2022-08-22T14:52:36.440Z,7.55
2022-08-22T14:55:23.260Z,17.15
2022-08-22T14:57:55.845Z,14.38
2022-08-22T15:00:40.159Z,14.00
2022-08-22T15:03:11.566Z,6.47
2022-08-22T15:05:46.277Z,9.80
2022-08-22T15:08:24.292Z,7.32
2022-08-22T15:11:12.437Z,8.90
2022-08-22T15:13:50.192Z,11.15
2022-08-22T15:16:23.468Z,11.13
2022-08-22T15:18:51.762Z,12.32
2022-08-22T15:21:26.668Z,10.63
2022-08-22T15:23:59.941Z,8.32
2022-08-22T15:26:50.184Z,9.95
2022-08-22T15:29:22.815Z,9.27
2022-08-22T15:31:54.161Z,8.50
2022-08-22T15:34:35.803Z,8.05
2022-08-22T15:37:16.613Z,7.53
2022-08-22T15:40:11.895Z,8.23
2022-08-22T15:42:45.129Z,6.78
2022-08-22T15:45:34.719Z,5.22
2022-08-22T15:48:09.806Z,10.95
2022-08-22T15:50:54.669Z,7.18
2022-08-22T15:53:30.381Z,14.25
2022-08-22T15:56:06.890Z,8.90
2022-08-22T15:58:40.349Z,7.55
2022-08-22T16:01:26.247Z,15.27
2022-08-22T16:03:56.118Z,11.98
2022-08-22T16:06:55.301Z,5.40
2022-08-22T16:09:46.901Z,13.63
2022-08-22T16:12:38.434Z,15.07
2022-08-22T16:15:27.364Z,12.18
2022-08-22T16:17:57.450Z,9.50
2022-08-22T16:20:24.540Z,11.02
2022-08-22T16:22:57.948Z,9.38
2022-08-22T16:26:03.204Z,12.95
2022-08-22T16:28:57.294Z,8.30
2022-08-22T16:31:27.698Z,12.02
2022-08-22T16:34:20.451Z,7.22
2022-08-22T16:36:47.715Z,11.57
2022-08-22T16:39:21.376Z,13.60
2022-08-22T16:42:16.166Z,17.33
2022-08-22T16:44:49.278Z,12.07
2022-08-22T16:47:30.704Z,8.60
2022-08-22T16:50:04.528Z,15.48
2022-08-22T16:52:33.375Z,14.80
2022-08-22T16:55:35.830Z,17.35
2022-08-22T16:58:49.852Z,14.80
2022-08-22T17:01:36.439Z,16.73
2022-08-22T17:04:45.255Z,10.15
2022-08-22T17:07:38.378Z,11.10
2022-08-22T17:10:24.864Z,23.80
2022-08-22T17:13:26.284Z,8.57
2022-08-22T17:16:13.542Z,20.08
2022-08-22T17:18:46.245Z,17.30
2022-08-22T17:21:32.625Z,14.90
2022-08-22T17:24:32.261Z,22.27
2022-08-22T17:27:19.732Z,15.05
2022-08-22T17:30:01.928Z,10.85
2022-08-22T17:32:37.367Z,12.13
2022-08-22T17:35:36.049Z,11.45
2022-08-22T17:38:29.040Z,15.85
2022-08-22T17:41:28.559Z,17.80
2022-08-22T17:44:22.817Z,12.43
2022-08-22T17:46:50.036Z,10.25
2022-08-22T17:49:45.937Z,18.27
2022-08-22T17:52:31.450Z,16.13
2022-08-22T17:55:07.668Z,11.88
2022-08-22T17:57:51.967Z,16.85
2022-08-22T18:00:26.186Z,10.68
2022-08-22T18:03:00.960Z,12.57
2022-08-22T18:05:32.856Z,20.02
2022-08-22T18:08:37.561Z,18.05
2022-08-22T18:11:12.889Z,19.35
2022-08-22T18:14:07.405Z,11.48
2022-08-22T18:16:50.172Z,9.20
2022-08-22T18:19:40.558Z,8.93
2022-08-22T18:22:28.375Z,18.77
2022-08-22T18:25:05.788Z,15.50
2022-08-22T18:28:02.189Z,20.25
2022-08-22T18:30:33.383Z,14.50
2022-08-22T18:33:41.096Z,10.60
2022-08-22T18:36:38.171Z,10.38
2022-08-22T18:39:28.725Z,11.00
2022-08-22T18:42:18.119Z,18.35
2022-08-22T18:44:45.518Z,16.00
2022-08-22T18:47:25.595Z,14.02
2022-08-22T18:52:27.964Z,19.50
2022-08-22T18:55:25.310Z,12.90
2022-08-22T18:58:17.257Z,11.95
2022-08-22T19:01:03.292Z,25.23
2022-08-22T19:03:47.376Z,13.15
2022-08-22T19:06:43.576Z,19.10
2022-08-22T19:09:52.331Z,12.35
2022-08-22T19:12:19.688Z,17.25
2022-08-22T19:14:58.646Z,22.13
2022-08-22T19:17:28.860Z,12.52
2022-08-22T19:20:41.555Z,18.58
2022-08-22T19:23:33.181Z,20.83
2022-08-22T19:26:25.178Z,18.20
2022-08-22T19:29:07.678Z,21.08
2022-08-22T19:31:41.317Z,14.93
2022-08-22T19:34:32.780Z,18.40
2022-08-22T19:37:32.340Z,17.15
2022-08-22T19:40:11.386Z,20.98
2022-08-22T19:42:41.783Z,17.20
2022-08-22T19:45:09.457Z,16.98
2022-08-22T19:47:42.601Z,19.02
2022-08-22T19:50:28.175Z,20.15
2022-08-22T19:53:49.627Z,22.58
2022-08-22T19:56:29.475Z,19.65
2022-08-22T19:58:59.282Z,20.25
2022-08-22T20:01:48.112Z,20.95
2022-08-22T20:04:42.430Z,28.05
2022-08-22T20:07:38.568Z,24.33
2022-08-22T20:10:44.096Z,23.02
2022-08-22T20:13:24.039Z,24.40
2022-08-22T20:16:10.327Z,19.70
2022-08-22T20:19:07.825Z,23.42
2022-08-22T20:22:02.211Z,31.65
2022-08-22T20:24:49.631Z,25.23
2022-08-22T20:27:31.096Z,27.85
2022-08-22T20:30:18.810Z,24.75
2022-08-22T20:32:53.846Z,19.75
2022-08-22T20:35:26.863Z,27.90
2022-08-22T20:38:06.747Z,25.30
2022-08-22T20:40:54.846Z,27.10
2022-08-22T20:43:55.280Z,31.90
2022-08-22T20:46:46.109Z,27.35
2022-08-22T20:49:28.699Z,25.55
2022-08-22T20:52:10.526Z,24.55
2022-08-22T20:54:40.861Z,26.30
2022-08-22T20:57:18.275Z,35.30
2022-08-22T21:00:05.815Z,28.40
2022-08-22T21:02:39.458Z,28.35
2022-08-22T21:05:18.650Z,34.53
2022-08-22T21:07:48.703Z,38.90
2022-08-22T21:10:39.961Z,30.80
2022-08-22T21:13:13.326Z,36.80
2022-08-22T21:15:48.997Z,38.97
2022-08-22T21:18:31.618Z,40.72
2022-08-22T21:21:20.622Z,43.80
2022-08-22T21:24:07.923Z,44.67
2022-08-22T21:26:55.834Z,39.20
2022-08-22T21:29:33.852Z,40.95
2022-08-22T21:32:18.755Z,43.97
2022-08-22T21:34:49.062Z,42.63
2022-08-22T21:37:29.782Z,44.63
2022-08-22T21:40:19.287Z,47.47
2022-08-22T21:43:03.502Z,44.50
2022-08-22T21:45:38.330Z,48.00
2022-08-22T21:48:30.304Z,43.42
2022-08-22T21:51:40.812Z,46.83
2022-08-22T21:54:26.130Z,47.53
2022-08-22T21:56:55.807Z,40.00
2022-08-22T21:59:51.980Z,47.55
2022-08-22T22:02:36.367Z,51.63
2022-08-22T22:05:11.442Z,48.83
2022-08-22T22:07:42.098Z,39.47
2022-08-22T22:10:12.820Z,47.05
2022-08-22T22:12:42.949Z,42.45
2022-08-22T22:15:15.250Z,42.47
2022-08-22T22:17:43.414Z,40.03
2022-08-22T22:20:12.556Z,41.28
2022-08-22T22:22:45.764Z,40.45
2022-08-22T22:25:40.415Z,42.22
2022-08-22T22:28:16.504Z,46.28
2022-08-22T22:30:45.484Z,46.58
2022-08-22T22:33:12.919Z,47.08
2022-08-22T22:35:40.768Z,45.78
2022-08-22T22:38:08.720Z,46.97
2022-08-22T22:40:36.380Z,41.58
2022-08-22T22:43:04.103Z,40.72
2022-08-22T22:45:31.308Z,48.22
2022-08-22T22:47:58.728Z,49.20
2022-08-22T22:50:26.523Z,46.85
2022-08-22T22:52:54.205Z,48.50
2022-08-22T22:55:24.574Z,47.15
2022-08-22T22:57:59.262Z,48.08
2022-08-22T23:00:31.744Z,46.25
2022-08-22T23:03:01.624Z,45.80
2022-08-22T23:05:32.797Z,46.60
2022-08-22T23:08:00.620Z,44.00
2022-08-22T23:10:29.696Z,43.53
2022-08-22T23:12:57.190Z,44.08
2022-08-22T23:15:24.570Z,46.58
2022-08-22T23:17:51.746Z,41.70
2022-08-22T23:20:19.311Z,46.17
2022-08-22T23:22:46.540Z,47.50
2022-08-22T23:25:14.608Z,44.03
2022-08-22T23:27:41.872Z,53.35
2022-08-22T23:30:10.615Z,43.08
2022-08-22T23:32:38.202Z,46.05
2022-08-22T23:35:05.916Z,47.75
2022-08-22T23:37:33.091Z,48.40
2022-08-22T23:40:00.340Z,47.20
2022-08-22T23:42:29.190Z,49.97
2022-08-22T23:44:56.389Z,40.28
2022-08-22T23:47:23.527Z,44.10
2022-08-22T23:49:50.797Z,44.08
2022-08-22T23:52:17.916Z,41.97
2022-08-22T23:54:45.048Z,44.22
2022-08-22T23:57:12.784Z,40.47
2022-08-22T23:59:48.459Z,45.70
